Time;durP1;ratioP1;P1;durP2;ratioP2;P2;SDS_P1;SDS_P2;PMS_P1;PMS_P2;Temp;Humidity;BMP_temperature;BMP_pressure;BME280_temperature;BME280_humidity;BME280_pressure;Samples;Min_cycle;Max_cycle;Signal;HPM_P1;HPM_P2
2022/02/04 00:08:28;;;;;;;25.90;15.20;;;;;;;-146.41;100.00;57768.22;4903810;29;20134;-68
2022/02/04 00:22:37;;;;;;;21.10;13.77;;;;;;;-146.41;100.00;57768.22;4985318;28;20531;-68
2022/02/04 00:25:00;;;;;;;20.67;14.25;;;;;;;-146.41;100.00;57768.22;4985444;28;20467;-68
2022/02/04 00:27:28;;;;;;;22.23;13.77;;;;;;;-146.41;100.00;57768.22;4986362;28;20466;-68
2022/02/04 00:30:10;;;;;;;25.33;15.13;;;;;;;-146.41;100.00;57768.22;4986639;28;20054;-69
2022/02/04 00:32:43;;;;;;;28.02;15.40;;;;;;;-146.41;100.00;57768.22;4988623;28;20078;-68
2022/02/04 00:35:53;;;;;;;19.88;14.23;;;;;;;-146.41;100.00;57768.22;4990234;28;20208;-68
2022/02/04 00:38:18;;;;;;;24.00;15.20;;;;;;;-146.41;100.00;57768.22;4986255;28;20062;-68
2022/02/04 00:40:51;;;;;;;20.80;13.48;;;;;;;-146.41;100.00;57768.22;4987521;28;20437;-68
2022/02/04 00:43:21;;;;;;;;;;;;;;;-146.41;100.00;57768.22;4988395;28;20101;-68
2022/02/04 00:49:07;;;;;;;27.85;13.70;;;;;;;-146.41;100.00;57768.22;4989804;28;20414;-68
2022/02/04 00:52:19;;;;;;;23.75;13.95;;;;;;;-146.41;100.00;57768.22;4988704;28;20046;-68
2022/02/04 00:54:46;;;;;;;20.92;14.23;;;;;;;-146.41;100.00;57768.22;4985730;28;20086;-67
2022/02/04 01:13:15;;;;;;;21.33;14.00;;;;;;;-146.41;100.00;57768.22;4988131;28;20050;-67
2022/02/04 01:28:14;;;;;;;19.88;13.27;;;;;;;-146.41;100.00;57768.22;4988085;28;20120;-68
2022/02/04 01:30:44;;;;;;;21.38;13.88;;;;;;;-146.41;100.00;57768.22;4988229;28;20277;-67
2022/02/04 01:33:13;;;;;;;22.75;14.57;;;;;;;-146.41;100.00;57768.22;4989514;28;20052;-68
2022/02/04 01:35:42;;;;;;;18.77;12.35;;;;;;;-146.41;100.00;57768.22;4988395;28;20136;-68
2022/02/04 01:38:11;;;;;;;27.02;14.40;;;;;;;-146.41;100.00;57768.22;4988403;28;20079;-68
2022/02/04 01:40:39;;;;;;;22.42;13.45;;;;;;;-146.41;100.00;57768.22;4975977;28;20054;-68
2022/02/04 01:43:09;;;;;;;23.83;14.55;;;;;;;-146.41;100.00;57768.22;4989060;28;20046;-68
2022/02/04 01:45:39;;;;;;;19.85;12.85;;;;;;;-146.41;100.00;57768.22;4990225;28;20050;-68
2022/02/04 01:48:08;;;;;;;24.20;14.88;;;;;;;-146.41;100.00;57768.22;4989368;28;20050;-68
2022/02/04 01:50:38;;;;;;;22.35;14.07;;;;;;;-146.41;100.00;57768.22;4989645;28;20404;-68
2022/02/04 01:53:08;;;;;;;25.23;15.10;;;;;;;-146.41;100.00;57768.22;4990164;28;20046;-68
2022/02/04 01:55:36;;;;;;;23.77;15.20;;;;;;;-146.41;100.00;57768.22;4990792;28;20060;-68
2022/02/04 01:58:05;;;;;;;26.33;15.00;;;;;;;-146.41;100.00;57768.22;4989644;28;20072;-68
2022/02/04 02:00:35;;;;;;;22.85;14.75;;;;;;;-146.41;100.00;57768.22;4989889;28;20046;-69
2022/02/04 02:03:05;;;;;;;21.95;14.40;;;;;;;-146.41;100.00;57768.22;4976004;28;20069;-68
2022/02/04 02:05:35;;;;;;;22.02;13.90;;;;;;;-146.41;100.00;57768.22;4988864;28;20105;-68
2022/02/04 02:08:08;;;;;;;19.08;12.00;;;;;;;-146.41;100.00;57768.22;4987157;28;20129;-68
2022/02/04 02:10:37;;;;;;;23.00;14.20;;;;;;;-146.41;100.00;57768.22;4989061;28;20463;-67
2022/02/04 02:43:52;;;;;;;22.65;14.13;;;;;;;-146.41;100.00;57768.22;4988905;28;20043;-68
2022/02/04 02:54:59;;;;;;;21.75;12.75;;;;;;;-146.41;100.00;57768.22;4988264;28;20523;-68
2022/02/04 03:00:28;;;;;;;20.27;11.65;;;;;;;-146.41;100.00;57768.22;4988582;28;20145;-68
2022/02/04 03:03:04;;;;;;;20.92;12.10;;;;;;;-146.41;100.00;57768.22;4987467;28;20543;-68
2022/02/04 03:05:35;;;;;;;25.20;12.25;;;;;;;-146.41;100.00;57768.22;4986950;28;20046;-68
2022/02/04 03:08:06;;;;;;;23.13;12.00;;;;;;;-146.41;100.00;57768.22;4985449;28;20046;-68
2022/02/04 03:10:36;;;;;;;21.80;11.93;;;;;;;-146.41;100.00;57768.22;4988422;28;20531;-68
2022/02/04 03:13:07;;;;;;;23.83;11.50;;;;;;;-146.41;100.00;57768.22;4989124;28;20050;-68
2022/02/04 03:15:39;;;;;;;19.73;12.85;;;;;;;-146.41;100.00;57768.22;4987912;28;20400;-68
2022/02/04 03:18:20;;;;;;;20.38;12.00;;;;;;;-146.41;100.00;57768.22;4987616;28;20061;-68
2022/02/04 03:20:54;;;;;;;21.52;13.50;;;;;;;-146.41;100.00;57768.22;4987203;28;20076;-68
2022/02/04 03:23:25;;;;;;;23.45;12.02;;;;;;;-146.41;100.00;57768.22;4988407;28;20129;-68
2022/02/04 03:26:04;;;;;;;23.13;12.85;;;;;;;-146.41;100.00;57768.22;4988370;28;20406;-67
2022/02/04 03:28:34;;;;;;;25.70;14.25;;;;;;;-146.41;100.00;57768.22;4987973;28;20084;-67
2022/02/04 03:31:06;;;;;;;22.48;13.32;;;;;;;-146.41;100.00;57768.22;4985996;28;20610;-68
2022/02/04 03:33:37;;;;;;;23.23;13.27;;;;;;;-146.41;100.00;57768.22;4987658;28;20046;-68
2022/02/04 03:36:07;;;;;;;23.00;14.60;;;;;;;-146.41;100.00;57768.22;4988787;28;20129;-68
2022/02/04 03:38:37;;;;;;;27.17;14.90;;;;;;;-146.41;100.00;57768.22;4985873;28;20125;-68
2022/02/04 03:41:08;;;;;;;23.35;14.38;;;;;;;-146.41;100.00;57768.22;4988408;28;20517;-67
2022/02/04 03:43:38;;;;;;;29.60;16.05;;;;;;;-146.41;100.00;57768.22;4985284;28;20149;-67
2022/02/04 03:46:08;;;;;;;24.10;13.75;;;;;;;-146.41;100.00;57768.22;4987935;28;20050;-67
2022/02/04 03:48:38;;;;;;;23.55;13.55;;;;;;;-146.41;100.00;57768.22;4989145;28;20197;-67
2022/02/04 03:51:08;;;;;;;21.70;13.18;;;;;;;-146.41;100.00;57768.22;4987871;28;20050;-67
2022/02/04 03:53:38;;;;;;;22.17;14.20;;;;;;;-146.41;100.00;57768.22;4987351;28;20129;-67
2022/02/04 03:56:08;;;;;;;26.48;14.52;;;;;;;-146.41;100.00;57768.22;4984969;28;20490;-68
2022/02/04 03:58:39;;;;;;;24.00;13.45;;;;;;;-146.41;100.00;57768.22;4988273;28;20064;-68
2022/02/04 04:01:08;;;;;;;28.33;14.75;;;;;;;-146.41;100.00;57768.22;4985790;28;20058;-67
2022/02/04 04:03:40;;;;;;;24.42;14.68;;;;;;;-146.41;100.00;57768.22;4987069;28;20060;-67
2022/02/04 04:06:09;;;;;;;19.92;13.60;;;;;;;-146.41;100.00;57768.22;4991916;28;20380;-68
2022/02/04 04:08:39;;;;;;;21.88;13.23;;;;;;;-146.41;100.00;57768.22;4993428;28;20056;-68
2022/02/04 04:11:11;;;;;;;21.52;13.77;;;;;;;-146.41;100.00;57768.22;4991943;28;20050;-68
2022/02/04 04:13:42;;;;;;;18.02;11.90;;;;;;;-146.41;100.00;57768.22;4989715;28;20089;-68
2022/02/04 04:16:14;;;;;;;20.83;12.85;;;;;;;-146.41;100.00;57768.22;4991026;28;20046;-68
2022/02/04 04:18:44;;;;;;;20.90;11.02;;;;;;;-146.41;100.00;57768.22;4992042;28;20050;-67
2022/02/04 04:21:14;;;;;;;20.25;12.75;;;;;;;-146.41;100.00;57768.22;4991620;28;20054;-68
2022/02/04 04:23:44;;;;;;;23.98;13.98;;;;;;;-146.41;100.00;57768.22;4982075;28;20050;-68
2022/02/04 04:26:15;;;;;;;23.42;13.23;;;;;;;-146.41;100.00;57768.22;4991696;28;20065;-67
2022/02/04 04:28:45;;;;;;;26.23;13.20;;;;;;;-146.41;100.00;57768.22;4992301;28;20062;-68
2022/02/04 04:31:17;;;;;;;20.77;13.13;;;;;;;-146.41;100.00;57768.22;4990418;28;20070;-67
2022/02/04 04:33:47;;;;;;;23.98;13.10;;;;;;;-146.41;100.00;57768.22;4991721;28;20129;-67
2022/02/04 04:36:19;;;;;;;22.55;13.75;;;;;;;-146.41;100.00;57768.22;4992431;28;20054;-68
2022/02/04 04:38:59;;;;;;;22.60;14.18;;;;;;;-146.41;100.00;57768.22;4990963;28;20060;-67
2022/02/04 05:26:22;;;;;;;27.02;16.55;;;;;;;-146.41;100.00;57768.22;4987807;28;20133;-67
2022/02/04 05:29:08;;;;;;;27.05;16.63;;;;;;;-146.41;100.00;57768.22;4990007;28;20050;-67
2022/02/04 05:31:38;;;;;;;24.23;14.98;;;;;;;-146.41;100.00;57768.22;4986254;28;20069;-68
2022/02/04 05:34:09;;;;;;;27.25;15.45;;;;;;;-146.41;100.00;57768.22;4990864;28;20133;-68
2022/02/04 05:36:43;;;;;;;25.75;15.68;;;;;;;-146.41;100.00;57768.22;4963819;28;20050;-67
2022/02/04 05:39:15;;;;;;;21.55;13.10;;;;;;;-146.41;100.00;57768.22;4988498;28;20065;-67
2022/02/04 05:41:48;;;;;;;24.15;15.07;;;;;;;-146.41;100.00;57768.22;4986575;28;20494;-67
2022/02/04 05:44:19;;;;;;;26.80;15.60;;;;;;;-146.41;100.00;57768.22;4990435;28;20158;-68
2022/02/04 05:46:57;;;;;;;27.63;15.93;;;;;;;-146.41;100.00;57768.22;4988892;28;20141;-67
2022/02/04 05:49:30;;;;;;;26.05;15.38;;;;;;;-146.41;100.00;57768.22;4987972;28;20081;-67
2022/02/04 05:52:15;;;;;;;24.85;15.57;;;;;;;-146.41;100.00;57768.22;4989569;28;20054;-68
2022/02/04 05:55:25;;;;;;;20.83;12.95;;;;;;;-146.41;100.00;57768.22;4990295;28;20402;-67
2022/02/04 05:58:02;;;;;;;26.08;14.95;;;;;;;-146.41;100.00;57768.22;4989166;28;20050;-68
2022/02/04 06:03:35;;;;;;;22.73;13.43;;;;;;;-146.41;100.00;57768.22;4989504;28;20499;-68
2022/02/04 06:06:39;;;;;;;21.23;12.98;;;;;;;-146.41;100.00;57768.22;4987751;28;20054;-67
2022/02/04 06:22:53;;;;;;;24.40;14.45;;;;;;;-146.41;100.00;57768.22;4985329;28;20042;-67
2022/02/04 06:25:23;;;;;;;22.27;11.90;;;;;;;-146.41;100.00;57768.22;4986964;28;20472;-68
2022/02/04 06:27:53;;;;;;;20.63;12.02;;;;;;;-146.41;100.00;57768.22;4988908;28;20043;-67
2022/02/04 06:30:24;;;;;;;17.20;10.48;;;;;;;-146.41;100.00;57768.22;4988548;28;20058;-67
2022/02/04 06:32:54;;;;;;;20.67;11.90;;;;;;;-146.41;100.00;57768.22;4986678;28;20074;-67
2022/02/04 06:35:24;;;;;;;24.15;13.43;;;;;;;-146.41;100.00;57768.22;4989356;28;20058;-68
2022/02/04 06:37:55;;;;;;;17.52;10.00;;;;;;;-146.41;100.00;57768.22;4986066;28;20400;-68
2022/02/04 06:40:25;;;;;;;22.45;10.95;;;;;;;-146.41;100.00;57768.22;4987718;28;20060;-67
2022/02/04 06:42:55;;;;;;;19.73;10.38;;;;;;;-146.41;100.00;57768.22;4989116;28;20069;-68
2022/02/04 06:45:26;;;;;;;19.92;12.25;;;;;;;-146.41;100.00;57768.22;4985303;28;20046;-67
2022/02/04 06:47:56;;;;;;;17.33;10.63;;;;;;;-146.41;100.00;57768.22;4985513;28;20054;-67
2022/02/04 06:50:26;;;;;;;18.55;9.68;;;;;;;-146.41;100.00;57768.22;4985586;28;20096;-68
2022/02/04 06:52:56;;;;;;;16.17;10.35;;;;;;;-146.41;100.00;57768.22;4989011;28;20050;-68
2022/02/04 06:55:26;;;;;;;18.80;10.35;;;;;;;-146.41;100.00;57768.22;4988265;28;20089;-67
2022/02/04 06:57:58;;;;;;;20.88;12.35;;;;;;;-146.41;100.00;57768.22;4989399;28;20053;-68
2022/02/04 07:00:29;;;;;;;19.15;11.23;;;;;;;-146.41;100.00;57768.22;4988485;28;20086;-67
2022/02/04 07:02:59;;;;;;;20.38;12.15;;;;;;;-146.41;100.00;57768.22;4989215;28;20545;-68
2022/02/04 07:05:38;;;;;;;17.05;11.48;;;;;;;-146.41;100.00;57768.22;4989845;28;20459;-68
2022/02/04 07:08:19;;;;;;;19.73;10.32;;;;;;;-146.41;100.00;57768.22;4988560;28;20057;-67
2022/02/04 07:11:10;;;;;;;17.90;11.27;;;;;;;-146.41;100.00;57768.22;4987055;28;20558;-67
2022/02/04 07:16:31;;;;;;;19.55;11.25;;;;;;;-146.41;100.00;57768.22;4984365;28;20065;-67
2022/02/04 07:21:34;;;;;;;14.80;9.30;;;;;;;-146.41;100.00;57768.22;4987535;28;20464;-68
2022/02/04 07:24:05;;;;;;;14.23;8.32;;;;;;;-146.41;100.00;57768.22;4987831;28;20397;-68
2022/02/04 07:26:35;;;;;;;15.00;8.77;;;;;;;-146.41;100.00;57768.22;4986211;28;20105;-67
2022/02/04 07:29:06;;;;;;;14.15;8.23;;;;;;;-146.41;100.00;57768.22;4987022;28;20054;-67
2022/02/04 07:31:39;;;;;;;13.73;8.60;;;;;;;-146.41;100.00;57768.22;4984216;28;20141;-67
2022/02/04 07:34:25;;;;;;;14.60;8.73;;;;;;;-146.41;100.00;57768.22;4983646;28;20057;-67
2022/02/04 07:42:32;;;;;;;16.30;8.75;;;;;;;-146.41;100.00;57768.22;4985872;28;20068;-68
2022/02/04 07:45:03;;;;;;;13.70;8.48;;;;;;;-146.41;100.00;57768.22;4988283;28;20058;-67
2022/02/04 07:47:34;;;;;;;11.00;7.15;;;;;;;-146.41;100.00;57768.22;4986780;28;20058;-67
2022/02/04 07:50:05;;;;;;;14.63;8.35;;;;;;;-146.41;100.00;57768.22;4986673;28;20359;-67
2022/02/04 07:52:35;;;;;;;14.57;8.40;;;;;;;-146.41;100.00;57768.22;4987691;28;20042;-67
2022/02/04 07:55:05;;;;;;;11.93;7.45;;;;;;;-146.41;100.00;57768.22;4984901;28;20141;-67
2022/02/04 07:57:35;;;;;;;12.15;7.45;;;;;;;-146.41;100.00;57768.22;4988109;28;20138;-68
2022/02/04 08:00:05;;;;;;;12.98;8.40;;;;;;;-146.41;100.00;57768.22;4987386;28;20046;-68
2022/02/04 08:02:36;;;;;;;11.38;6.75;;;;;;;-146.41;100.00;57768.22;4988468;28;20046;-67
2022/02/04 08:05:08;;;;;;;11.93;7.40;;;;;;;-146.41;100.00;57768.22;4987102;28;20054;-67
2022/02/04 08:08:01;;;;;;;14.13;8.32;;;;;;;-146.41;100.00;57768.22;4985413;28;20449;-67
2022/02/04 08:10:42;;;;;;;10.93;6.90;;;;;;;-146.41;100.00;57768.22;4983171;28;20054;-67
2022/02/04 08:24:06;;;;;;;12.27;7.15;;;;;;;-146.41;100.00;57768.22;4986739;28;20046;-67
2022/02/04 08:29:49;;;;;;;15.85;9.38;;;;;;;-146.41;100.00;57768.22;4987354;28;20060;-67
2022/02/04 08:35:10;;;;;;;11.98;7.38;;;;;;;-146.41;100.00;57768.22;4985951;28;20059;-67
2022/02/04 08:49:13;;;;;;;13.52;8.00;;;;;;;-146.41;100.00;57768.22;4987459;28;20060;-67
2022/02/04 08:54:31;;;;;;;11.30;6.22;;;;;;;-146.41;100.00;57768.22;4992703;28;20093;-68
2022/02/04 08:58:07;;;;;;;11.13;5.50;;;;;;;-146.41;100.00;57768.22;4990379;28;20125;-68
2022/02/04 09:00:12;;;;;;;8.48;4.72;;;;;;;-146.41;100.00;57768.22;4975607;28;20046;-68
2022/02/04 09:02:44;;;;;;;8.32;4.57;;;;;;;-146.41;100.00;57768.22;4990525;28;20070;-67
2022/02/04 09:05:16;;;;;;;8.40;3.90;;;;;;;-146.41;100.00;57768.22;4988422;28;20093;-68
2022/02/04 09:07:56;;;;;;;7.50;4.27;;;;;;;-146.41;100.00;57768.22;4989958;28;20487;-67
2022/02/04 09:10:28;;;;;;;6.90;3.85;;;;;;;-146.41;100.00;57768.22;4989547;28;20069;-67
2022/02/04 09:23:38;;;;;;;7.53;4.57;;;;;;;-146.41;100.00;57768.22;4988669;28;20076;-67
2022/02/04 09:26:08;;;;;;;8.13;4.82;;;;;;;-146.41;100.00;57768.22;4990838;28;20551;-67
2022/02/04 09:28:39;;;;;;;6.80;4.25;;;;;;;-146.41;100.00;57768.22;4990899;28;20130;-67
2022/02/04 09:31:09;;;;;;;7.25;4.05;;;;;;;-146.41;100.00;57768.22;4988717;28;20134;-68
2022/02/04 09:33:39;;;;;;;9.13;5.05;;;;;;;-146.41;100.00;57768.22;4990495;28;20661;-68
2022/02/04 09:36:09;;;;;;;8.82;4.28;;;;;;;-146.41;100.00;57768.22;4989936;28;20054;-67
2022/02/04 09:38:39;;;;;;;7.55;4.18;;;;;;;-146.41;100.00;57768.22;4988995;28;20069;-67
2022/02/04 09:41:08;;;;;;;9.43;4.82;;;;;;;-146.41;100.00;57768.22;4989182;28;20054;-67
2022/02/04 09:43:38;;;;;;;8.48;4.88;;;;;;;-146.41;100.00;57768.22;4989708;28;20086;-67
2022/02/04 09:46:10;;;;;;;8.35;4.70;;;;;;;-146.41;100.00;57768.22;4987040;28;20518;-70
2022/02/04 09:48:43;;;;;;;8.48;4.68;;;;;;;-146.41;100.00;57768.22;4989951;28;20046;-67
2022/02/04 09:51:17;;;;;;;6.85;3.60;;;;;;;-146.41;100.00;57768.22;4988716;28;20545;-67
2022/02/04 10:09:06;;;;;;;8.88;4.95;;;;;;;-146.41;100.00;57768.22;4986662;28;20519;-67
2022/02/04 10:17:21;;;;;;;11.30;5.45;;;;;;;-146.41;100.00;57768.22;4989545;28;20068;-67
2022/02/04 10:19:53;;;;;;;10.38;5.28;;;;;;;-146.41;100.00;57768.22;4988795;28;20061;-67
2022/02/04 10:22:29;;;;;;;8.70;5.32;;;;;;;-146.41;100.00;57768.22;4968352;28;21499;-68
2022/02/04 10:25:04;;;;;;;10.32;5.15;;;;;;;-146.41;100.00;57768.22;4986633;28;20450;-68
2022/02/04 10:27:36;;;;;;;9.60;5.05;;;;;;;-146.41;100.00;57768.22;4986722;28;20130;-67
2022/02/04 10:30:14;;;;;;;8.48;5.03;;;;;;;-146.41;100.00;57768.22;4988477;28;20188;-67
2022/02/04 10:32:48;;;;;;;10.35;6.63;;;;;;;-146.41;100.00;57768.22;4987823;28;20129;-67
2022/02/04 10:35:26;;;;;;;9.30;5.32;;;;;;;-146.41;100.00;57768.22;4983551;28;20114;-67
2022/02/04 10:40:55;;;;;;;8.82;5.50;;;;;;;-146.41;100.00;57768.22;4987062;28;20499;-68
2022/02/04 10:56:52;;;;;;;7.50;4.80;;;;;;;-146.41;100.00;57768.22;4989411;28;20451;-68
2022/02/04 10:59:34;;;;;;;7.43;5.00;;;;;;;-146.41;100.00;57768.22;4985139;28;20136;-67
2022/02/04 11:02:14;;;;;;;6.75;4.40;;;;;;;-146.41;100.00;57768.22;4985893;28;20050;-67
2022/02/04 11:05:04;;;;;;;7.18;3.90;;;;;;;-146.41;100.00;57768.22;4986651;28;20416;-68
2022/02/04 11:10:41;;;;;;;8.45;5.95;;;;;;;-146.41;100.00;57768.22;4969928;28;20062;-67
2022/02/04 11:33:44;;;;;;;7.55;4.55;;;;;;;-146.41;100.00;57768.22;4989061;28;20422;-69
2022/02/04 11:36:00;;;;;;;12.93;7.65;;;;;;;-146.41;100.00;57768.22;4988940;28;20142;-68
2022/02/04 11:48:04;;;;;;;4.75;2.30;;;;;;;-146.41;100.00;57768.22;4955655;28;20174;-68
2022/02/04 11:51:03;;;;;;;2.50;1.45;;;;;;;-146.41;100.00;57768.22;4990332;28;20046;-69
2022/02/04 11:54:28;;;;;;;8.07;4.38;;;;;;;-146.41;100.00;57768.22;4987459;28;20539;-68
2022/02/04 11:56:51;;;;;;;2.35;1.20;;;;;;;-146.41;100.00;57768.22;4988178;28;20153;-68
2022/02/04 11:59:38;;;;;;;3.70;1.23;;;;;;;-146.41;100.00;57768.22;4989688;28;20070;-68
2022/02/04 12:05:08;;;;;;;9.57;3.70;;;;;;;-146.41;100.00;57768.22;4986223;28;20211;-68
2022/02/04 12:07:39;;;;;;;2.28;1.27;;;;;;;-146.41;100.00;57768.22;4986959;28;20074;-68
2022/02/04 12:10:13;;;;;;;5.68;2.20;;;;;;;-146.41;100.00;57768.22;4983396;28;20142;-68
2022/02/04 12:12:54;;;;;;;3.00;1.88;;;;;;;-146.41;100.00;57768.22;4983814;28;20057;-68
2022/02/04 12:15:33;;;;;;;3.70;0.77;;;;;;;-146.41;100.00;57768.22;4983578;28;20137;-68
2022/02/04 12:18:10;;;;;;;6.60;1.90;;;;;;;-146.41;100.00;57768.22;4982451;28;20058;-68
2022/02/04 12:20:53;;;;;;;1.20;0.60;;;;;;;-146.41;100.00;57768.22;4964200;28;20078;-67
2022/02/04 12:23:35;;;;;;;2.58;0.90;;;;;;;-146.41;100.00;57768.22;4985256;28;20056;-67
2022/02/04 12:26:12;;;;;;;1.02;0.57;;;;;;;-146.41;100.00;57768.22;4987128;28;20054;-68
2022/02/04 12:28:50;;;;;;;1.35;0.60;;;;;;;-146.41;100.00;57768.22;4987596;28;20566;-68
2022/02/04 12:31:30;;;;;;;1.45;0.70;;;;;;;-146.41;100.00;57768.22;4988870;28;20046;-67
2022/02/04 12:34:01;;;;;;;1.20;0.50;;;;;;;-146.41;100.00;57768.22;4970339;28;20054;-68
2022/02/04 12:36:50;;;;;;;2.20;0.80;;;;;;;-146.41;100.00;57768.22;4990111;28;20058;-67
2022/02/04 12:39:27;;;;;;;1.13;0.60;;;;;;;-146.41;100.00;57768.22;4990918;28;20132;-68
2022/02/04 12:42:05;;;;;;;2.22;0.60;;;;;;;-146.41;100.00;57768.22;4986022;28;20065;-69
2022/02/04 12:44:37;;;;;;;2.45;0.90;;;;;;;-146.41;100.00;57768.22;4978062;28;20074;-67
2022/02/04 12:47:15;;;;;;;2.57;0.50;;;;;;;-146.41;100.00;57768.22;4991336;28;20491;-67
2022/02/04 12:50:07;;;;;;;1.20;0.50;;;;;;;-146.41;100.00;57768.22;4991304;28;20702;-68
2022/02/04 12:52:44;;;;;;;0.70;0.40;;;;;;;-146.41;100.00;57768.22;4990172;28;20112;-67
2022/02/04 12:55:23;;;;;;;0.93;0.40;;;;;;;-146.41;100.00;57768.22;4991190;28;20082;-67
2022/02/04 13:03:11;;;;;;;1.90;0.60;;;;;;;-146.41;100.00;57768.22;4990736;28;20132;-67
2022/02/04 13:11:16;;;;;;;1.63;0.80;;;;;;;-146.41;100.00;57768.22;4989429;28;20064;-67
2022/02/04 13:13:50;;;;;;;0.93;0.50;;;;;;;-146.41;100.00;57768.22;4988788;28;20092;-67
2022/02/04 13:16:32;;;;;;;0.90;0.50;;;;;;;-146.41;100.00;57768.22;4965199;28;20134;-67
2022/02/04 13:19:02;;;;;;;2.25;0.70;;;;;;;-146.41;100.00;57768.22;4986452;28;20169;-67
2022/02/04 13:21:33;;;;;;;2.05;1.05;;;;;;;-146.41;100.00;57768.22;4969939;28;20108;-67
2022/02/04 13:24:09;;;;;;;1.35;0.60;;;;;;;-146.41;100.00;57768.22;4988163;28;20111;-67
2022/02/04 13:26:38;;;;;;;1.92;0.63;;;;;;;-146.41;100.00;57768.22;4986772;28;20073;-67
2022/02/04 13:29:08;;;;;;;1.35;0.68;;;;;;;-146.41;100.00;57768.22;4990478;28;20129;-67
2022/02/04 13:31:37;;;;;;;2.45;1.00;;;;;;;-146.41;100.00;57768.22;4988387;28;20051;-67
2022/02/04 13:34:10;;;;;;;2.28;0.75;;;;;;;-146.41;100.00;57768.22;4985794;28;20507;-67
2022/02/04 13:36:45;;;;;;;1.20;0.60;;;;;;;-146.41;100.00;57768.22;4987241;28;20054;-67
2022/02/04 13:44:42;;;;;;;4.50;1.10;;;;;;;-146.41;100.00;57768.22;4985277;28;20046;-68
2022/02/04 13:48:04;;;;;;;3.17;1.08;;;;;;;-146.41;100.00;57768.22;4987806;28;20057;-67
2022/02/04 13:53:16;;;;;;;2.67;1.30;;;;;;;-146.41;100.00;57768.22;4988170;28;20116;-67
2022/02/04 13:58:39;;;;;;;3.58;0.90;;;;;;;-146.41;100.00;57768.22;4979084;28;20153;-69
2022/02/04 14:03:43;;;;;;;3.70;1.05;;;;;;;-146.41;100.00;57768.22;4988056;28;20046;-67
2022/02/04 14:06:16;;;;;;;3.72;1.30;;;;;;;-146.41;100.00;57768.22;4989212;28;20042;-67
2022/02/04 14:11:30;;;;;;;;;;;;;;;-146.41;100.00;57768.22;4986735;28;20510;-67
2022/02/04 14:14:11;;;;;;;2.78;0.90;;;;;;;-146.41;100.00;57768.22;4987891;28;20190;-67
2022/02/04 14:16:49;;;;;;;2.95;0.73;;;;;;;-146.41;100.00;57768.22;4985368;28;20133;-67
2022/02/04 14:19:18;;;;;;;2.35;1.08;;;;;;;-146.41;100.00;57768.22;4987668;28;20053;-68
2022/02/04 14:21:47;;;;;;;1.50;0.80;;;;;;;-146.41;100.00;57768.22;4988817;28;20089;-67
2022/02/04 14:24:15;;;;;;;2.17;0.60;;;;;;;-146.41;100.00;57768.22;4988933;28;20080;-67
2022/02/04 14:26:47;;;;;;;3.45;1.17;;;;;;;-146.41;100.00;57768.22;4988078;28;20209;-68
2022/02/04 14:29:24;;;;;;;2.03;0.77;;;;;;;-146.41;100.00;57768.22;4988685;28;20054;-67
2022/02/04 14:32:00;;;;;;;2.90;0.88;;;;;;;-146.41;100.00;57768.22;4987361;28;20466;-68
2022/02/04 15:00:06;;;;;;;3.08;1.20;;;;;;;-146.41;100.00;57768.22;4987392;28;20651;-67
2022/02/04 15:02:00;;;;;;;2.75;1.33;;;;;;;-146.41;100.00;57768.22;4981836;28;20164;-68
2022/02/04 15:04:46;;;;;;;1.90;1.00;;;;;;;-146.41;100.00;57768.22;4987037;28;20057;-68
2022/02/04 15:07:17;;;;;;;3.17;1.30;;;;;;;-146.41;100.00;57768.22;4988305;28;20050;-67
2022/02/04 15:09:56;;;;;;;2.70;1.38;;;;;;;-146.41;100.00;57768.22;4988258;28;20539;-67
2022/02/04 15:12:26;;;;;;;2.60;1.33;;;;;;;-146.41;100.00;57768.22;4987522;28;20125;-68
2022/02/04 15:14:57;;;;;;;1.92;1.15;;;;;;;-146.41;100.00;57768.22;4986864;28;20604;-68
2022/02/04 15:17:28;;;;;;;2.33;0.95;;;;;;;-146.41;100.00;57768.22;4988284;28;20121;-68
2022/02/04 15:19:58;;;;;;;3.55;1.60;;;;;;;-146.41;100.00;57768.22;4965453;28;20696;-68
2022/02/04 15:22:28;;;;;;;3.40;1.45;;;;;;;-146.41;100.00;57768.22;4988850;28;20062;-68
2022/02/04 15:25:06;;;;;;;2.65;1.38;;;;;;;-146.41;100.00;57768.22;4986509;28;20046;-68
2022/02/04 15:27:40;;;;;;;2.97;1.20;;;;;;;-146.41;100.00;57768.22;4987418;28;20066;-68
2022/02/04 15:30:11;;;;;;;2.78;1.50;;;;;;;-146.41;100.00;57768.22;4986241;28;20050;-68
2022/02/04 15:32:42;;;;;;;3.20;1.20;;;;;;;-146.41;100.00;57768.22;4984512;28;20156;-68
2022/02/04 15:35:12;;;;;;;5.10;1.77;;;;;;;-146.41;100.00;57768.22;4987062;28;20133;-68
2022/02/04 15:37:42;;;;;;;3.08;0.75;;;;;;;-146.41;100.00;57768.22;4988800;28;20065;-68
2022/02/04 15:40:13;;;;;;;1.88;0.90;;;;;;;-146.41;100.00;57768.22;4987173;28;20054;-68
2022/02/04 15:42:52;;;;;;;3.08;1.30;;;;;;;-146.41;100.00;57768.22;4988265;28;20054;-69
2022/02/04 15:48:37;;;;;;;2.70;0.90;;;;;;;-146.41;100.00;57768.22;4965785;28;20157;-68
2022/02/04 15:51:31;;;;;;;2.22;0.90;;;;;;;-146.41;100.00;57768.22;4986288;28;20042;-68
2022/02/04 15:54:18;;;;;;;3.70;1.00;;;;;;;-146.41;100.00;57768.22;4988314;28;20046;-68
2022/02/04 16:04:30;;;;;;;1.98;0.90;;;;;;;-146.41;100.00;57768.22;4986975;28;20276;-68
2022/02/04 16:07:00;;;;;;;1.70;0.68;;;;;;;-146.41;100.00;57768.22;4987245;28;20157;-68
2022/02/04 16:09:30;;;;;;;2.38;0.80;;;;;;;-146.41;100.00;57768.22;4985852;28;20054;-68
2022/02/04 16:12:08;;;;;;;2.20;0.93;;;;;;;-146.41;100.00;57768.22;4987605;28;20081;-68
2022/02/04 16:14:47;;;;;;;1.90;0.90;;;;;;;-146.41;100.00;57768.22;4986036;28;20491;-68
2022/02/04 16:17:28;;;;;;;2.92;1.00;;;;;;;-146.41;100.00;57768.22;4985692;28;20050;-68
2022/02/04 16:20:51;;;;;;;3.22;1.08;;;;;;;-146.41;100.00;57768.22;4986869;28;20444;-68
2022/02/04 16:23:25;;;;;;;1.83;0.80;;;;;;;-146.41;100.00;57768.22;4981113;28;20082;-68
2022/02/04 16:28:51;;;;;;;1.67;0.90;;;;;;;-146.41;100.00;57768.22;4976481;28;20055;-69
2022/02/04 16:31:21;;;;;;;2.72;1.38;;;;;;;-146.41;100.00;57768.22;4985994;28;20129;-67
2022/02/04 16:33:52;;;;;;;2.28;1.02;;;;;;;-146.41;100.00;57768.22;4987090;28;20093;-66
2022/02/04 16:36:22;;;;;;;3.22;1.10;;;;;;;-146.41;100.00;57768.22;4987549;28;20133;-67
2022/02/04 16:38:53;;;;;;;2.75;1.30;;;;;;;-146.41;100.00;57768.22;4987599;28;20130;-68
2022/02/04 16:41:32;;;;;;;2.25;1.10;;;;;;;-146.41;100.00;57768.22;4962594;28;20486;-68
2022/02/04 16:44:02;;;;;;;3.00;1.35;;;;;;;-146.41;100.00;57768.22;4987752;28;20129;-68
2022/02/04 16:46:35;;;;;;;2.53;0.73;;;;;;;-146.41;100.00;57768.22;4984544;28;20058;-68
2022/02/04 16:49:03;;;;;;;1.92;1.05;;;;;;;-146.41;100.00;57768.22;4986026;28;20076;-67
2022/02/04 16:51:32;;;;;;;3.03;1.45;;;;;;;-146.41;100.00;57768.22;4987155;28;20681;-68
2022/02/04 16:54:02;;;;;;;2.70;1.20;;;;;;;-146.41;100.00;57768.22;4988629;28;20050;-68
2022/02/04 16:56:30;;;;;;;3.08;1.42;;;;;;;-146.41;100.00;57768.22;4986853;28;20054;-69
2022/02/04 16:59:01;;;;;;;2.33;0.93;;;;;;;-146.41;100.00;57768.22;4986418;28;20130;-68
2022/02/04 17:01:30;;;;;;;3.13;1.58;;;;;;;-146.41;100.00;57768.22;4986223;28;20097;-69
2022/02/04 17:03:59;;;;;;;2.42;1.10;;;;;;;-146.41;100.00;57768.22;4987049;28;20125;-68
2022/02/04 17:06:33;;;;;;;2.50;1.23;;;;;;;-146.41;100.00;57768.22;4985793;28;20074;-67
2022/02/04 17:11:47;;;;;;;4.43;2.28;;;;;;;-146.41;100.00;57768.22;4985330;28;20066;-69
2022/02/04 17:14:16;;;;;;;4.30;2.33;;;;;;;-146.41;100.00;57768.22;4990893;28;20074;-68
2022/02/04 17:16:45;;;;;;;4.38;2.00;;;;;;;-146.41;100.00;57768.22;4971408;28;20053;-68
2022/02/04 17:19:20;;;;;;;1.65;1.00;;;;;;;-146.41;100.00;57768.22;4988573;28;20117;-68
2022/02/04 17:21:50;;;;;;;4.35;1.63;;;;;;;-146.41;100.00;57768.22;4984833;28;20069;-68